Time;durP1;ratioP1;P1;durP2;ratioP2;P2;SDS_P1;SDS_P2;PMS_P1;PMS_P2;Temp;Humidity;BMP_temperature;BMP_pressure;BME280_temperature;BME280_humidity;BME280_pressure;Samples;Min_cycle;Max_cycle;Signal;HPM_P1;HPM_P2
2021/07/15 00:00:18;;;;;;;;;42.25;36.00;;;;;25.68;69.18;101163.03;6306963;22;8794;-79
2021/07/15 00:03:18;;;;;;;;;40.50;34.50;;;;;25.72;68.49;101163.81;6285918;22;8807;-78
2021/07/15 00:06:14;;;;;;;;;40.00;34.25;;;;;25.59;67.04;101159.91;6306405;22;8769;-78
2021/07/15 00:09:12;;;;;;;;;34.75;32.50;;;;;25.30;69.54;101167.13;6306440;22;8785;-78
2021/07/15 00:12:11;;;;;;;;;42.25;37.00;;;;;25.40;68.96;101157.72;6285864;22;8785;-78
2021/07/15 00:15:07;;;;;;;;;37.75;34.25;;;;;25.63;69.31;101157.84;6307374;22;9564;-79
2021/07/15 00:18:05;;;;;;;;;37.75;33.50;;;;;25.83;68.39;101163.69;6306039;22;8880;-78
2021/07/15 00:21:04;;;;;;;;;36.00;32.00;;;;;25.49;68.69;101158.81;6306671;22;8889;-79
2021/07/15 00:24:00;;;;;;;;;41.00;35.75;;;;;25.50;69.08;101160.41;6306260;22;8777;-78
2021/07/15 00:26:56;;;;;;;;;41.75;34.75;;;;;25.36;68.08;101154.09;6285745;22;9486;-78
2021/07/15 00:29:51;;;;;;;;;38.25;34.00;;;;;25.39;68.95;101158.94;6306628;22;8869;-78
2021/07/15 00:32:47;;;;;;;;;33.25;31.25;;;;;25.34;68.04;101157.38;6307081;22;9593;-78
2021/07/15 00:35:43;;;;;;;;;38.75;35.00;;;;;25.21;68.96;101159.91;6305974;22;8781;-78
2021/07/15 00:38:38;;;;;;;;;38.00;33.75;;;;;24.89;70.32;101156.56;6287355;22;8872;-78
2021/07/15 00:41:35;;;;;;;;;43.75;37.50;;;;;24.71;71.23;101153.91;6305698;22;8774;-78
2021/07/15 00:44:30;;;;;;;;;37.00;33.25;;;;;24.86;69.80;101155.41;6287685;22;8819;-78
2021/07/15 00:47:26;;;;;;;;;34.50;32.25;;;;;25.01;69.93;101161.72;6306040;22;8766;-79
2021/07/15 00:50:22;;;;;;;;;38.25;34.00;;;;;24.81;70.02;101155.84;6306164;22;8789;-78
2021/07/15 00:53:19;;;;;;;;;33.75;31.50;;;;;24.84;69.92;101159.84;6305578;22;8780;-79
2021/07/15 00:56:15;;;;;;;;;32.50;29.75;;;;;24.99;68.03;101155.66;6307051;22;8820;-79
2021/07/15 00:59:11;;;;;;;;;36.00;33.00;;;;;25.10;69.12;101150.75;6285526;22;8799;-79
2021/07/15 01:02:06;;;;;;;;;37.50;31.50;;;;;24.92;69.02;101148.06;6305850;22;8789;-79
2021/07/15 01:05:12;;;;;;;;;24.25;24.25;;;;;24.26;68.14;101145.34;6306555;22;8777;-79
2021/07/15 01:08:09;;;;;;;;;29.50;29.50;;;;;24.47;71.00;101152.91;6306017;22;8793;-79
2021/07/15 01:11:22;;;;;;;;;30.25;29.00;;;;;24.61;69.89;101157.63;6306975;22;9639;-79
2021/07/15 01:14:26;;;;;;;;;29.50;29.25;;;;;24.68;70.33;101154.72;6307704;22;8804;-79
2021/07/15 01:17:27;;;;;;;;;29.25;29.25;;;;;24.90;67.60;101150.50;6305785;22;8781;-79
2021/07/15 01:21:08;;;;;;;;;30.50;28.00;;;;;25.02;67.98;101149.19;6288269;22;8861;-80
2021/07/15 01:24:41;;;;;;;;;25.00;25.00;;;;;25.10;68.25;101150.75;6258866;22;8789;-80
2021/07/15 01:28:03;;;;;;;;;24.25;24.25;;;;;25.31;67.73;101160.25;6306124;22;8785;-79
2021/07/15 01:31:02;;;;;;;;;26.00;26.00;;;;;25.49;66.64;101163.69;6286782;22;8809;-80
2021/07/15 01:33:58;;;;;;;;;19.25;19.25;;;;;25.21;65.58;101148.59;6305287;22;8880;-79
2021/07/15 01:36:56;;;;;;;;;26.25;25.00;;;;;24.97;68.32;101158.13;6306482;22;8791;-80
2021/07/15 01:39:52;;;;;;;;;22.25;21.50;;;;;25.08;67.83;101153.19;6306571;22;8776;-79
2021/07/15 01:42:53;;;;;;;;;24.50;24.50;;;;;25.17;65.18;101161.19;6307168;22;9472;-79
2021/07/15 01:45:49;;;;;;;;;0.75;0.75;;;;;25.19;67.16;101151.06;6306249;22;8874;-79
2021/07/15 01:48:46;;;;;;;;;23.50;23.50;;;;;25.10;67.09;101153.56;6284908;22;8834;-79
2021/07/15 01:51:42;;;;;;;;;20.80;20.80;;;;;25.11;65.95;101151.56;6308888;22;8823;-79
2021/07/15 01:54:38;;;;;;;;;24.25;23.25;;;;;25.10;66.78;101147.91;6305326;22;8808;-79
2021/07/15 01:57:37;;;;;;;;;20.25;20.25;;;;;25.13;67.51;101151.94;6305734;22;8789;-80
2021/07/15 02:00:34;;;;;;;;;23.00;23.00;;;;;24.71;67.10;101164.44;6305275;22;8808;-80
2021/07/15 02:03:30;;;;;;;;;24.00;24.00;;;;;23.95;69.38;101163.28;6307997;22;8781;-79
2021/07/15 02:06:29;;;;;;;;;17.50;16.50;;;;;24.59;68.61;101162.88;6284932;22;8866;-80
2021/07/15 02:09:26;;;;;;;;;24.75;22.50;;;;;24.74;67.96;101164.38;6306199;22;8817;-79
2021/07/15 02:12:23;;;;;;;;;22.25;22.25;;;;;25.00;66.66;101162.97;6304495;22;8773;-80
2021/07/15 02:15:19;;;;;;;;;30.25;27.75;;;;;25.11;66.35;101160.84;6305313;22;8854;-80
2021/07/15 02:18:18;;;;;;;;;19.00;19.00;;;;;25.13;66.33;101168.91;6303943;22;8804;-79
2021/07/15 02:21:15;;;;;;;;;28.25;27.75;;;;;24.87;66.47;101157.00;6305282;22;8796;-79
2021/07/15 02:24:13;;;;;;;;;26.00;24.75;;;;;24.76;66.65;101161.13;6306383;22;8800;-79
2021/07/15 02:27:10;;;;;;;;;41.75;35.00;;;;;24.96;66.36;101165.00;6284450;22;8835;-80
2021/07/15 02:30:09;;;;;;;;;36.75;33.25;;;;;24.29;68.57;101157.81;6305414;22;8797;-79
2021/07/15 02:33:11;;;;;;;;;33.75;32.00;;;;;24.73;67.59;101162.78;6284850;22;8828;-79
2021/07/15 02:36:08;;;;;;;;;43.25;37.75;;;;;24.89;67.17;101162.22;6284778;22;8788;-79
2021/07/15 02:39:05;;;;;;;;;54.25;45.00;;;;;24.75;66.30;101168.81;6285018;22;8773;-79
2021/07/15 02:42:01;;;;;;;;;46.25;39.00;;;;;24.71;68.31;101165.22;6305110;22;8789;-79
2021/07/15 02:44:57;;;;;;;;;48.50;40.50;;;;;25.11;66.46;101171.38;6305481;22;8807;-79
2021/07/15 02:47:52;;;;;;;;;50.00;42.25;;;;;24.87;66.57;101176.00;6306387;22;8785;-79
2021/07/15 02:50:48;;;;;;;;;53.50;44.75;;;;;25.08;65.98;101158.88;6303970;22;8789;-79
2021/07/15 02:53:44;;;;;;;;;54.50;44.25;;;;;25.16;65.96;101170.91;6284401;22;8777;-79
2021/07/15 02:56:48;;;;;;;;;53.25;44.25;;;;;24.95;66.06;101174.72;6307111;22;8805;-78
2021/07/15 03:00:09;;;;;;;;;55.00;44.25;;;;;25.25;65.56;101176.88;6306232;22;8808;-78
2021/07/15 03:03:30;;;;;;;;;59.75;47.50;;;;;25.30;65.59;101178.44;6306773;22;8854;-78
2021/07/15 03:06:34;;;;;;;;;65.00;52.00;;;;;25.03;65.32;101179.13;6286739;22;8781;-78
2021/07/15 03:09:32;;;;;;;;;54.75;43.75;;;;;25.25;65.62;101179.72;6306971;22;9162;-79
2021/07/15 03:12:33;;;;;;;;;58.00;48.50;;;;;25.18;65.73;101171.28;6306828;22;8887;-79
2021/07/15 03:15:32;;;;;;;;;64.67;51.00;;;;;25.35;65.04;101178.78;6308484;22;8880;-79
2021/07/15 03:18:30;;;;;;;;;56.50;46.50;;;;;25.27;65.77;101173.63;6306849;22;8926;-79
2021/07/15 03:21:27;;;;;;;;;63.67;51.00;;;;;25.02;66.24;101174.66;6307959;22;8785;-78
2021/07/15 03:24:25;;;;;;;;;72.00;58.50;;;;;24.31;65.99;101175.19;6308418;22;9104;-79
2021/07/15 03:27:23;;;;;;;;;61.67;50.00;;;;;24.01;70.03;101176.56;6306100;22;9735;-79
2021/07/15 03:30:19;;;;;;;;;55.33;46.00;;;;;24.63;68.61;101181.44;6307454;22;9239;-79
2021/07/15 03:33:19;;;;;;;;;69.67;57.00;;;;;25.09;67.26;101177.44;6286285;22;9416;-80
2021/07/15 03:36:15;;;;;;;;;72.00;59.75;;;;;25.37;65.90;101187.66;6307315;22;9456;-80
2021/07/15 03:39:13;;;;;;;;;71.67;56.33;;;;;25.33;64.64;101183.28;6287114;22;9488;-80
2021/07/15 03:42:09;;;;;;;;;61.67;49.33;;;;;25.02;66.88;101180.31;6306756;22;9496;-80
2021/07/15 03:45:06;;;;;;;;;72.00;59.00;;;;;25.35;66.05;101186.47;6305670;22;9316;-80
2021/07/15 03:48:03;;;;;;;;;73.67;61.67;;;;;25.54;65.33;101200.03;6306621;22;9500;-80
2021/07/15 03:51:01;;;;;;;;;70.67;58.00;;;;;25.62;65.16;101195.91;6306439;22;9192;-80
2021/07/15 03:53:57;;;;;;;;;70.00;55.50;;;;;25.46;64.74;101198.50;6307540;22;9266;-80
2021/07/15 03:56:53;;;;;;;;;69.00;58.00;;;;;25.75;64.56;101196.97;6306848;22;9549;-79
2021/07/15 03:59:51;;;;;;;;;66.00;54.00;;;;;25.82;64.47;101198.09;6306332;22;10046;-79
2021/07/15 04:02:48;;;;;;;;;51.00;41.75;;;;;25.83;63.19;101200.50;6306070;22;8964;-79
2021/07/15 04:05:45;;;;;;;;;61.00;48.00;;;;;25.66;64.79;101199.47;6306727;22;8781;-78
2021/07/15 04:08:43;;;;;;;;;44.75;38.75;;;;;25.51;61.73;101210.16;6285676;22;8773;-78
2021/07/15 04:11:43;;;;;;;;;44.75;38.25;;;;;25.17;60.26;101212.16;6286935;22;8800;-78
2021/07/15 04:14:38;;;;;;;;;49.00;39.50;;;;;24.78;61.97;101207.59;6305831;22;9525;-79
2021/07/15 04:17:38;;;;;;;;;49.25;41.50;;;;;24.75;63.47;101207.59;6306355;22;9467;-80
2021/07/15 04:20:34;;;;;;;;;52.00;40.50;;;;;24.78;63.59;101220.94;6306371;22;8801;-79
2021/07/15 04:23:32;;;;;;;;;49.75;41.00;;;;;24.63;61.54;101212.56;6306345;22;8835;-78
2021/07/15 04:26:27;;;;;;;;;47.50;39.50;;;;;24.67;61.66;101223.81;6287077;22;8777;-79
2021/07/15 04:29:24;;;;;;;;;45.75;38.50;;;;;24.73;62.36;101227.03;6286187;22;9487;-79
2021/07/15 04:32:28;;;;;;;;;39.50;34.00;;;;;24.58;62.19;101226.31;6306186;22;8805;-78
2021/07/15 04:35:26;;;;;;;;;42.25;36.75;;;;;25.05;63.94;101219.09;6306517;22;8783;-79
2021/07/15 04:38:23;;;;;;;;;42.00;37.00;;;;;25.48;63.10;101227.19;6286943;22;8858;-78
2021/07/15 04:41:20;;;;;;;;;34.50;32.50;;;;;25.39;59.90;101218.41;6308632;22;8789;-79
2021/07/15 04:44:16;;;;;;;;;32.75;30.75;;;;;25.52;58.45;101220.25;6306206;22;8858;-78
2021/07/15 04:47:14;;;;;;;;;29.00;28.75;;;;;25.68;58.02;101216.03;6306176;22;8792;-79
2021/07/15 04:50:13;;;;;;;;;33.75;31.50;;;;;25.69;58.42;101221.31;6286215;22;8895;-78
2021/07/15 04:53:14;;;;;;;;;36.50;32.25;;;;;25.52;60.24;101223.09;6306074;22;8893;-78
2021/07/15 04:56:11;;;;;;;;;41.00;36.25;;;;;25.69;60.03;101229.81;6307826;22;8777;-79
2021/07/15 04:59:08;;;;;;;;;38.50;33.25;;;;;25.89;60.25;101235.66;6306423;22;8777;-81
2021/07/15 05:01:51;;;;;;;;;38.25;34.50;;;;;25.96;58.53;101238.41;6257654;22;8803;-79
2021/07/15 05:04:48;;;;;;;;;37.25;33.75;;;;;25.98;58.82;101235.94;6308085;22;8784;-81
2021/07/15 05:07:16;;;;;;;;;37.00;33.75;;;;;26.04;57.21;101241.94;6308632;22;8808;-78
2021/07/15 05:09:45;;;;;;;;;37.75;33.25;;;;;26.10;57.21;101236.63;6314290;22;9505;-81
2021/07/15 05:12:12;;;;;;;;;46.50;39.00;;;;;26.08;55.68;101234.22;6316086;22;8772;-82
2021/07/15 05:14:43;;;;;;;;;46.50;39.00;;;;;26.18;56.00;101236.09;6307847;22;8761;-80
2021/07/15 05:17:13;;;;;;;;;46.00;39.25;;;;;26.56;56.62;101233.16;6290698;22;8777;-81
2021/07/15 05:20:10;;;;;;;;;66.25;53.00;;;;;26.86;55.59;101232.31;6305053;22;8812;-81
2021/07/15 05:23:08;;;;;;;;;69.00;58.00;;;;;27.14;55.37;101239.53;6312517;22;8792;-81
2021/07/15 05:25:57;;;;;;;;;88.00;82.00;;;;;27.23;54.01;101236.19;6318863;22;9096;-80
2021/07/15 05:28:54;;;;;;;;;85.50;79.25;;;;;27.37;53.21;101230.22;6317603;22;10144;-81
2021/07/15 05:31:50;;;;;;;;;77.00;70.67;;;;;27.44;51.96;101233.72;6298751;22;10063;-81
2021/07/15 05:34:46;;;;;;;;;78.50;75.75;;;;;27.77;51.96;101233.16;6287495;22;9277;-84
2021/07/15 05:37:42;;;;;;;;;79.33;65.33;;;;;27.87;50.59;101220.75;6305745;22;9870;-82
2021/07/15 05:40:38;;;;;;;;;72.75;63.50;;;;;28.09;50.90;101232.47;6305855;22;9041;-82
2021/07/15 05:43:33;;;;;;;;;71.67;60.33;;;;;28.13;49.64;101233.19;6305264;22;8803;-82
2021/07/15 05:46:29;;;;;;;;;71.00;61.67;;;;;28.24;49.97;101228.88;6284875;22;8879;-82
2021/07/15 05:49:24;;;;;;;;;54.00;43.33;;;;;28.23;50.92;101232.97;6285129;22;8952;-84
2021/07/15 05:52:20;;;;;;;;;71.75;59.00;;;;;28.49;51.05;101234.03;6285279;22;8867;-82
2021/07/15 05:55:16;;;;;;;;;62.50;50.75;;;;;28.66;49.58;101225.50;6305337;22;8780;-81
2021/07/15 05:57:57;;;;;;;;;72.00;62.75;;;;;28.86;49.58;101234.00;6282761;22;8805;-81
2021/07/15 06:00:39;;;;;;;;;65.00;53.25;;;;;29.00;47.93;101222.28;6284477;22;8789;-83
2021/07/15 06:03:35;;;;;;;;;64.75;52.00;;;;;29.20;46.84;101222.97;6305332;22;8848;-84
2021/07/15 06:06:30;;;;;;;;;56.50;44.00;;;;;29.43;46.35;101227.63;6305366;22;8795;-84
2021/07/15 06:09:26;;;;;;;;;70.75;59.25;;;;;29.55;50.29;101221.22;6307271;22;8799;-83
2021/07/15 06:12:21;;;;;;;;;49.50;42.00;;;;;29.82;46.80;101220.84;6306300;22;9467;-85
2021/07/15 06:14:49;;;;;;;;;49.60;40.00;;;;;29.85;44.30;101214.28;6316565;22;8781;-82
2021/07/15 06:17:39;;;;;;;;;35.60;31.40;;;;;29.78;46.36;101220.19;6307446;22;8796;-81
2021/07/15 06:20:07;;;;;;;;;18.40;15.00;;;;;29.92;44.82;101218.16;6314654;22;8765;-85
2021/07/15 06:23:03;;;;;;;;;40.60;35.60;;;;;30.23;45.24;101207.06;6305403;22;9459;-83
2021/07/15 06:26:00;;;;;;;;;36.00;32.00;;;;;30.40;44.51;101205.72;6306422;22;8823;-84
2021/07/15 06:28:55;;;;;;;;;18.60;18.60;;;;;30.63;43.30;101208.22;6306133;22;8804;-84
2021/07/15 06:31:51;;;;;;;;;23.60;23.40;;;;;30.84;42.77;101214.53;6305693;22;8933;-84
2021/07/15 06:34:47;;;;;;;;;23.00;23.00;;;;;30.67;42.51;101210.97;6288438;22;8781;-82
2021/07/15 06:37:48;;;;;;;;;27.40;27.00;;;;;30.83;44.45;101208.00;6286663;22;8777;-83
2021/07/15 06:40:52;;;;;;;;;13.80;13.80;;;;;30.87;41.59;101207.88;6304932;22;8788;-83
2021/07/15 06:43:39;;;;;;;;;18.20;18.20;;;;;31.12;42.89;101202.09;6314457;22;8780;-83
2021/07/15 06:46:07;;;;;;;;;14.80;14.80;;;;;31.07;41.57;101199.84;6278243;22;8784;-85
2021/07/15 06:49:03;;;;;;;;;13.40;13.40;;;;;31.13;41.98;101202.91;6283919;22;8800;-82
2021/07/15 06:51:36;;;;;;;;;17.60;17.60;;;;;31.50;40.58;101201.19;6318588;22;8804;-86
2021/07/15 06:54:32;;;;;;;;;17.00;16.60;;;;;31.67;39.36;101211.19;6310100;22;8885;-87
2021/07/15 06:57:28;;;;;;;;;19.40;19.00;;;;;31.65;39.72;101204.34;6302074;22;8820;-83
2021/07/15 07:00:24;;;;;;;;;24.00;23.00;;;;;31.76;39.70;101202.69;6327526;22;8813;-87
2021/07/15 07:03:19;;;;;;;;;32.00;29.80;;;;;31.86;39.08;101202.78;6315234;22;8800;-84
2021/07/15 07:06:15;;;;;;;;;30.60;28.60;;;;;31.85;39.47;101201.19;6287879;22;8805;-84
2021/07/15 07:09:11;;;;;;;;;34.20;30.40;;;;;32.13;39.24;101199.25;6309636;22;8836;-84
2021/07/15 07:12:07;;;;;;;;;40.80;34.80;;;;;32.34;38.77;101192.72;6306594;22;8789;-82
2021/07/15 07:15:04;;;;;;;;;46.20;37.00;;;;;32.14;38.17;101186.59;6287906;22;8808;-81
2021/07/15 07:18:00;;;;;;;;;48.40;40.20;;;;;32.60;37.02;101193.31;6287300;22;8896;-87
2021/07/15 07:20:58;;;;;;;;;55.80;42.40;;;;;32.83;37.27;101187.03;6307312;22;8824;-87
2021/07/15 07:23:54;;;;;;;;;43.80;37.80;;;;;33.13;35.84;101202.56;6308126;22;8811;-87
2021/07/15 07:26:50;;;;;;;;;38.40;34.60;;;;;33.19;35.82;101185.50;6308722;22;8866;-86
2021/07/15 07:29:45;;;;;;;;;34.00;30.40;;;;;33.49;35.63;101194.47;6309740;22;8824;-85
2021/07/15 07:32:42;;;;;;;;;35.60;31.60;;;;;33.31;36.33;101189.50;6288270;22;8796;-84
2021/07/15 07:35:38;;;;;;;;;32.80;30.40;;;;;33.61;36.21;101194.31;6291974;22;9475;-85
2021/07/15 07:38:34;;;;;;;;;20.40;20.40;;;;;33.63;35.80;101182.34;6308969;22;8773;-84
2021/07/15 07:41:31;;;;;;;;;33.00;31.00;;;;;33.75;36.09;101184.25;6304086;22;8883;-83
2021/07/15 07:44:27;;;;;;;;;32.40;30.80;;;;;33.81;35.67;101181.50;6285560;22;8785;-78
2021/07/15 07:47:22;;;;;;;;;35.00;31.40;;;;;33.92;35.80;101182.63;6306944;22;8793;-78
2021/07/15 07:49:51;;;;;;;;;23.80;23.80;;;;;33.78;34.71;101186.16;6308143;22;8757;-79
2021/07/15 07:52:21;;;;;;;;;33.20;30.80;;;;;34.06;34.82;101191.88;6315755;22;8800;-78
2021/07/15 07:54:51;;;;;;;;;16.40;15.00;;;;;34.06;33.15;101191.88;6318691;22;8777;-78
2021/07/15 07:57:19;;;;;;;;;6.60;6.60;;;;;34.36;32.03;101181.38;6317006;22;8846;-78
2021/07/15 07:59:48;;;;;;;;;9.80;9.80;;;;;34.31;33.40;101185.72;6316941;22;8860;-78
2021/07/15 08:02:16;;;;;;;;;6.20;6.20;;;;;34.42;32.48;101183.13;6308485;22;8820;-78
2021/07/15 08:04:44;;;;;;;;;8.60;7.40;;;;;34.37;30.81;101177.22;6309682;22;8769;-79
2021/07/15 08:07:15;;;;;;;;;7.00;7.00;;;;;33.96;31.99;101191.88;6316046;22;8795;-79
2021/07/15 08:09:46;;;;;;;;;9.00;9.00;;;;;34.17;32.57;101178.56;6307877;22;8791;-80
2021/07/15 08:12:16;;;;;;;;;8.00;8.00;;;;;34.24;32.39;101180.31;6318431;22;8777;-79
2021/07/15 08:14:45;;;;;;;;;6.40;6.40;;;;;34.13;31.69;101182.91;6318622;22;8773;-79
2021/07/15 08:17:13;;;;;;;;;10.00;9.40;;;;;34.13;32.86;101182.91;6308534;22;9494;-79
2021/07/15 08:19:50;;;;;;;;;12.60;12.60;;;;;34.13;32.75;101188.66;6317128;22;8776;-78
2021/07/15 08:22:18;;;;;;;;;13.40;13.40;;;;;34.28;31.50;101178.06;6308292;22;8887;-78
2021/07/15 08:24:46;;;;;;;;;13.00;11.00;;;;;34.60;32.25;101181.47;6317555;22;8818;-76
2021/07/15 08:27:13;;;;;;;;;15.20;15.00;;;;;34.90;32.68;101183.22;6307778;22;8802;-78
2021/07/15 08:29:41;;;;;;;;;18.20;14.00;;;;;34.97;32.51;101174.25;6289613;22;8758;-78
2021/07/15 08:32:08;;;;;;;;;12.00;12.00;;;;;35.17;30.73;101176.47;6316501;22;8773;-78
2021/07/15 08:34:36;;;;;;;;;18.60;17.00;;;;;35.32;30.30;101170.75;6316192;22;8769;-78
2021/07/15 08:37:04;;;;;;;;;16.40;16.00;;;;;35.45;30.66;101179.94;6307458;22;8890;-78
2021/07/15 08:39:32;;;;;;;;;22.40;22.20;;;;;35.37;30.64;101167.22;6289405;22;8762;-78
2021/07/15 08:42:01;;;;;;;;;12.80;12.80;;;;;35.41;27.71;101159.19;6316065;22;8788;-78
2021/07/15 08:44:29;;;;;;;;;18.80;17.80;;;;;35.64;29.89;101160.44;6307588;22;8800;-77
2021/07/15 08:47:01;;;;;;;;;11.60;11.00;;;;;35.90;28.26;101160.69;6316888;22;8781;-78
2021/07/15 08:49:29;;;;;;;;;14.80;14.80;;;;;36.00;28.82;101155.59;6255366;22;8793;-77
2021/07/15 08:52:01;;;;;;;;;12.00;12.00;;;;;35.82;28.15;101147.94;6317169;22;8864;-77
2021/07/15 08:57:19;;;;;;;;;13.60;13.60;;;;;36.13;28.33;101153.22;6295034;22;8773;-77
2021/07/15 08:59:48;;;;;;;;;16.60;16.60;;;;;36.13;28.50;101154.00;6316516;22;8797;-78
2021/07/15 09:02:19;;;;;;;;;15.60;15.00;;;;;36.01;28.13;101151.44;6316399;22;8858;-78
2021/07/15 09:04:48;;;;;;;;;6.20;6.20;;;;;36.10;26.87;101145.56;6309591;22;8992;-78
2021/07/15 09:07:19;;;;;;;;;6.80;6.80;;;;;36.32;27.82;101137.28;6316981;22;8785;-78
2021/07/15 09:09:48;;;;;;;;;5.40;5.40;;;;;36.61;26.69;101147.94;6316428;22;8831;-78
2021/07/15 09:12:16;;;;;;;;;5.80;5.80;;;;;36.60;27.55;101139.81;6315942;22;8785;-78
2021/07/15 09:14:46;;;;;;;;;6.80;6.80;;;;;36.69;25.54;101139.66;6316526;22;8869;-78
2021/07/15 09:17:16;;;;;;;;;10.80;10.80;;;;;36.51;26.30;101137.84;6316461;22;8805;-78
2021/07/15 09:19:49;;;;;;;;;6.00;6.00;;;;;36.64;26.84;101135.41;6306021;22;8801;-77
2021/07/15 09:22:16;;;;;;;;;8.80;7.80;;;;;36.80;25.70;101130.38;6316295;22;8885;-78
2021/07/15 09:24:47;;;;;;;;;13.80;13.80;;;;;36.73;27.10;101128.72;6316291;22;8769;-78
2021/07/15 09:27:20;;;;;;;;;14.00;14.00;;;;;37.06;27.06;101130.47;6316058;22;8831;-78
2021/07/15 09:30:13;;;;;;;;;6.40;6.40;;;;;37.09;26.27;101127.38;6316014;22;8773;-77
2021/07/15 09:32:58;;;;;;;;;8.40;8.40;;;;;37.27;27.09;101124.19;6316270;22;8859;-78
2021/07/15 09:35:34;;;;;;;;;5.80;5.80;;;;;36.95;26.01;101126.16;6309606;22;8823;-78
2021/07/15 09:38:25;;;;;;;;;8.60;8.60;;;;;37.14;26.94;101120.88;6307030;22;8797;-88
2021/07/15 09:41:20;;;;;;;;;3.00;3.00;;;;;37.17;25.08;101125.63;6288500;22;8793;-84
2021/07/15 09:44:01;;;;;;;;;2.20;2.20;;;;;37.10;23.57;101123.19;6292149;22;8785;-83
2021/07/15 09:46:56;;;;;;;;;3.40;3.40;;;;;37.38;25.13;101116.97;6287103;22;8934;-83
2021/07/15 09:49:52;;;;;;;;;5.80;5.80;;;;;37.37;25.51;101121.94;6282040;22;9470;-82
2021/07/15 09:52:25;;;;;;;;;4.20;4.20;;;;;37.62;23.75;101125.34;6312108;22;8797;-84
2021/07/15 09:55:26;;;;;;;;;4.00;4.00;;;;;37.61;24.92;101118.78;6282097;22;8813;-86
2021/07/15 09:58:04;;;;;;;;;4.80;4.80;;;;;37.63;25.20;101124.03;6313097;22;8821;-86
2021/07/15 10:00:48;;;;;;;;;3.00;3.00;;;;;37.64;24.90;101123.53;6282388;22;8780;-84
2021/07/15 10:03:34;;;;;;;;;5.20;4.80;;;;;37.67;25.03;101116.75;6292241;22;8803;-81
2021/07/15 10:06:48;;;;;;;;;2.00;2.00;;;;;37.61;25.20;101120.88;6253627;22;8830;-85
2021/07/15 10:10:20;;;;;;;;;;;;;;;;;;;;;
2021/07/15 10:13:43;;;;;;;;;3.60;3.60;;;;;37.66;24.32;101111.50;6273734;22;8794;-87
2021/07/15 10:16:46;;;;;;;;;6.00;5.60;;;;;37.70;23.96;101109.94;6255077;22;8815;-85
2021/07/15 10:19:46;;;;;;;;;5.40;5.40;;;;;37.64;23.52;101109.09;6262945;22;8791;-84
2021/07/15 10:22:57;;;;;;;;;7.20;7.20;;;;;37.82;24.60;101110.88;6256649;22;8825;-85
2021/07/15 10:25:31;;;;;;;;;26.60;18.60;;;;;37.98;24.83;101107.31;6276746;22;8916;-80
2021/07/15 10:28:00;;;;;;;;;8.00;8.00;;;;;37.99;23.86;101103.13;6260617;22;8795;-86
2021/07/15 10:30:44;;;;;;;;;6.00;6.00;;;;;38.11;24.61;101093.25;6272266;22;8821;-84
2021/07/15 10:33:11;;;;;;;;;5.20;5.20;;;;;38.06;22.76;101101.88;6281315;22;8835;-86
2021/07/15 10:36:05;;;;;;;;;4.40;4.40;;;;;37.79;25.20;101097.44;6250701;22;8803;-84
2021/07/15 10:39:07;;;;;;;;;7.20;7.20;;;;;38.06;23.32;101090.31;6261683;22;8783;-85
2021/07/15 10:41:35;;;;;;;;;6.40;6.40;;;;;38.29;23.40;101092.09;6281254;22;8818;-85
2021/07/15 10:44:31;;;;;;;;;10.40;10.40;;;;;38.34;24.51;101094.22;6250473;22;8870;-83
2021/07/15 10:47:28;;;;;;;;;8.00;8.00;;;;;38.02;24.00;101092.66;6253564;22;8815;-81
2021/07/15 10:50:24;;;;;;;;;3.80;3.80;;;;;37.71;23.25;101099.19;6269505;22;8837;-81
2021/07/15 10:52:52;;;;;;;;;3.20;3.20;;;;;37.92;22.80;101094.94;6280646;22;8799;-86
2021/07/15 10:59:04;;;;;;;;;4.80;4.80;;;;;38.58;23.37;101087.25;6274396;22;8836;-85
2021/07/15 11:01:41;;;;;;;;;5.00;5.00;;;;;38.13;21.72;101089.84;6281119;22;8823;-89
2021/07/15 11:04:34;;;;;;;;;5.80;5.60;;;;;38.09;23.29;101087.19;6281945;22;8800;-85
2021/07/15 11:07:45;;;;;;;;;4.40;4.40;;;;;38.21;23.40;101082.28;6303567;22;8776;-86
2021/07/15 11:10:34;;;;;;;;;3.40;3.40;;;;;38.29;22.28;101080.53;6280971;22;8883;-88
2021/07/15 11:13:48;;;;;;;;;5.60;5.60;;;;;38.47;22.31;101064.88;6303328;22;8784;-87
2021/07/15 11:16:53;;;;;;;;;8.00;6.00;;;;;38.88;21.92;101076.91;6281073;22;8946;-86
2021/07/15 11:20:08;;;;;;;;;2.80;2.80;;;;;38.75;21.97;101073.69;6281546;22;8796;-85
2021/07/15 11:23:11;;;;;;;;;3.00;2.80;;;;;38.45;21.34;101061.72;6305302;22;8823;-84
2021/07/15 11:25:43;;;;;;;;;3.00;3.00;;;;;38.71;21.31;101073.13;6288959;22;8781;-86
2021/07/15 11:28:49;;;;;;;;;4.80;4.80;;;;;38.34;22.29;101059.56;6306738;22;8835;-87
2021/07/15 11:31:52;;;;;;;;;3.00;3.00;;;;;38.21;22.75;101055.50;6315041;22;8830;-88
2021/07/15 11:34:43;;;;;;;;;3.80;3.80;;;;;38.26;21.76;101052.66;6314591;22;8784;-87
2021/07/15 11:37:26;;;;;;;;;4.60;4.60;;;;;38.48;22.14;101054.09;6282978;22;8800;-86
2021/07/15 11:40:36;;;;;;;;;4.80;4.80;;;;;38.63;23.13;101052.59;6305872;22;8804;-87
2021/07/15 11:43:33;;;;;;;;;4.00;4.00;;;;;38.89;24.29;101055.34;6283303;22;8792;-88
2021/07/15 11:46:32;;;;;;;;;3.20;3.20;;;;;38.86;21.43;101055.59;6287440;22;8784;-88
2021/07/15 11:49:27;;;;;;;;;5.00;5.00;;;;;38.88;23.13;101053.00;6288131;22;8812;-85
2021/07/15 11:52:25;;;;;;;;;6.00;6.00;;;;;38.83;22.67;101051.66;6290745;22;8808;-87
2021/07/15 11:55:20;;;;;;;;;4.00;4.00;;;;;39.33;22.74;101053.09;6286918;22;8800;-83
2021/07/15 11:58:54;;;;;;;;;2.60;2.60;;;;;39.10;21.54;101047.25;6308259;22;8824;-85
2021/07/15 12:02:03;;;;;;;;;2.00;2.00;;;;;39.10;20.22;101049.34;6283420;22;8885;-83
2021/07/15 12:05:35;;;;;;;;;3.40;3.00;;;;;39.31;21.69;101047.06;6305709;22;8813;-87
2021/07/15 12:08:37;;;;;;;;;3.20;3.20;;;;;39.10;20.88;101037.78;6287185;22;8873;-84
2021/07/15 12:11:33;;;;;;;;;5.60;4.60;;;;;39.07;21.48;101038.84;6286083;22;9525;-84
2021/07/15 12:14:30;;;;;;;;;3.00;3.00;;;;;39.23;20.95;101038.09;6285911;22;8808;-83
2021/07/15 12:16:59;;;;;;;;;1.40;1.40;;;;;39.31;19.61;101027.59;6305927;22;8777;-83
2021/07/15 12:19:54;;;;;;;;;7.00;6.40;;;;;39.36;20.98;101021.03;6284745;22;8824;-85
2021/07/15 12:31:25;;;;;;;;;;;;;;;;;;;;;
2021/07/15 12:35:41;;;;;;;;;;;;;;;;;;;;;
2021/07/15 12:38:56;;;;;;;;;2.40;2.40;;;;;39.66;21.76;101026.31;6141778;23;8805;-82
2021/07/15 12:41:26;;;;;;;;;5.00;5.00;;;;;39.97;20.54;101025.22;6223142;23;8892;-82
2021/07/15 12:43:59;;;;;;;;;3.60;3.60;;;;;39.88;18.42;101029.19;6252559;22;9522;-79
2021/07/15 12:46:53;;;;;;;;;8.00;8.00;;;;;40.18;19.80;101022.81;6308863;22;8823;-79
2021/07/15 12:49:48;;;;;;;;;6.20;5.20;;;;;40.16;20.14;101019.66;6310667;22;8800;-79
2021/07/15 12:52:17;;;;;;;;;4.20;4.20;;;;;40.41;20.65;101009.84;6280333;22;8819;-80
2021/07/15 12:54:49;;;;;;;;;3.40;3.40;;;;;40.27;20.98;101013.84;6316600;22;8804;-81
2021/07/15 12:57:17;;;;;;;;;4.00;4.00;;;;;40.21;18.69;101015.97;6307389;22;8808;-80
2021/07/15 12:59:59;;;;;;;;;4.20;4.20;;;;;40.32;20.02;101001.44;6292179;22;9015;-80
2021/07/15 13:02:57;;;;;;;;;7.20;7.20;;;;;40.13;20.87;101015.72;6305698;22;8785;-79
2021/07/15 13:05:52;;;;;;;;;4.40;4.40;;;;;39.91;20.63;101012.84;6306047;22;8901;-78
2021/07/15 13:08:50;;;;;;;;;7.60;4.80;;;;;40.29;20.69;101002.50;6308645;22;8777;-78
2021/07/15 13:14:37;;;;;;;;;5.40;4.20;;;;;40.43;21.13;100997.72;6308325;22;8793;-82
2021/07/15 13:17:35;;;;;;;;;7.20;7.20;;;;;40.59;19.40;100996.09;6307891;22;8781;-81
2021/07/15 13:20:25;;;;;;;;;6.00;6.00;;;;;40.48;20.28;100997.69;6318354;22;8765;-81
2021/07/15 13:22:57;;;;;;;;;6.40;6.40;;;;;40.54;20.99;100994.78;6316748;22;8777;-80
2021/07/15 13:25:52;;;;;;;;;14.00;14.00;;;;;40.58;19.21;101001.09;6316961;22;8765;-81
2021/07/15 13:28:22;;;;;;;;;9.20;9.20;;;;;40.66;20.33;100992.63;6316205;22;8796;-76
2021/07/15 13:31:18;;;;;;;;;9.40;9.40;;;;;40.65;19.71;100994.75;6266040;22;8801;-75
2021/07/15 13:33:48;;;;;;;;;7.60;7.60;;;;;40.77;19.15;100998.34;6289086;22;8761;-77
2021/07/15 13:36:30;;;;;;;;;10.80;10.80;;;;;40.66;20.28;100987.63;6306610;22;8895;-76